Time;durP1;ratioP1;P1;durP2;ratioP2;P2;SDS_P1;SDS_P2;PMS_P1;PMS_P2;Temp;Humidity;BMP_temperature;BMP_pressure;BME280_temperature;BME280_humidity;BME280_pressure;Samples;Min_cycle;Max_cycle;Signal;HPM_P1;HPM_P2
2021/08/16 00:01:54;;;;;;;57.40;53.38;;;;;;;18.92;100.00;100989.63;5063635;28;20049;-79
2021/08/16 00:04:23;;;;;;;41.00;37.80;;;;;;;19.14;100.00;100984.97;5062161;28;20045;-78
2021/08/16 00:06:49;;;;;;;52.65;48.55;;;;;;;19.19;100.00;100976.16;5062725;28;20052;-78
2021/08/16 00:09:16;;;;;;;52.40;48.70;;;;;;;19.35;100.00;100983.25;5062809;28;20045;-81
2021/08/16 00:11:43;;;;;;;55.10;50.58;;;;;;;19.41;100.00;100976.84;5061080;28;20401;-80
2021/08/16 00:14:10;;;;;;;47.72;44.33;;;;;;;19.68;100.00;100973.28;5066720;28;20055;-80
2021/08/16 00:16:37;;;;;;;49.88;46.42;;;;;;;19.33;100.00;100976.50;5062040;28;20059;-80
2021/08/16 00:19:04;;;;;;;43.53;40.13;;;;;;;19.28;100.00;100971.09;5065114;28;20401;-78
2021/08/16 00:21:32;;;;;;;50.90;47.13;;;;;;;19.47;100.00;100968.81;5069243;28;20054;-78
2021/08/16 00:23:59;;;;;;;60.10;55.97;;;;;;;19.63;100.00;100965.94;5067374;28;20041;-79
2021/08/16 00:26:26;;;;;;;46.20;42.90;;;;;;;19.43;100.00;100971.22;5060666;28;20056;-78
2021/08/16 00:28:53;;;;;;;46.22;42.50;;;;;;;19.53;100.00;100965.88;5066004;28;20048;-80
2021/08/16 00:31:19;;;;;;;47.50;43.95;;;;;;;19.60;100.00;100965.66;5057882;28;20052;-79
2021/08/16 00:33:46;;;;;;;57.95;53.92;;;;;;;19.51;100.00;100972.59;5063857;28;20048;-79
2021/08/16 00:36:13;;;;;;;50.88;47.03;;;;;;;19.47;100.00;100971.50;5070938;28;20074;-81
2021/08/16 00:38:41;;;;;;;54.03;50.13;;;;;;;19.13;100.00;100977.97;5060170;28;20048;-79
2021/08/16 00:41:08;;;;;;;54.78;50.58;;;;;;;18.72;100.00;100972.19;5060997;28;20055;-81
2021/08/16 00:43:35;;;;;;;53.60;49.70;;;;;;;18.96;100.00;100975.41;5064030;28;20051;-79
2021/08/16 00:46:03;;;;;;;49.42;46.13;;;;;;;19.33;100.00;100969.25;5067111;28;20424;-77
2021/08/16 00:48:30;;;;;;;51.88;48.22;;;;;;;19.34;100.00;100970.06;5062182;28;20044;-78
2021/08/16 00:50:57;;;;;;;51.83;48.13;;;;;;;18.87;100.00;100976.13;5058659;28;20504;-78
2021/08/16 00:53:24;;;;;;;50.00;46.20;;;;;;;19.11;100.00;100976.59;5061041;28;20385;-79
2021/08/16 00:55:53;;;;;;;62.95;58.80;;;;;;;19.13;100.00;100977.19;5066198;28;20045;-77
2021/08/16 00:58:20;;;;;;;58.33;54.22;;;;;;;18.63;100.00;100973.69;5061932;28;20059;-82
2021/08/16 01:00:47;;;;;;;51.38;47.42;;;;;;;18.76;100.00;100975.22;5061879;28;20381;-81
2021/08/16 01:03:14;;;;;;;50.53;46.47;;;;;;;18.73;100.00;100975.75;5065723;28;20428;-77
2021/08/16 01:05:41;;;;;;;55.70;51.50;;;;;;;18.85;100.00;100975.56;5053053;28;20052;-79
2021/08/16 01:08:07;;;;;;;52.42;48.63;;;;;;;18.79;100.00;100981.97;5062998;28;20504;-79
2021/08/16 01:10:34;;;;;;;49.90;46.30;;;;;;;18.43;100.00;100982.38;5062407;28;20048;-78
2021/08/16 01:13:02;;;;;;;57.05;52.92;;;;;;;18.13;100.00;100982.81;5057684;28;20056;-79
2021/08/16 01:15:29;;;;;;;54.97;50.97;;;;;;;17.71;100.00;100983.28;5058974;28;20055;-81
2021/08/16 01:17:57;;;;;;;50.08;46.08;;;;;;;18.29;100.00;100970.38;5061360;28;20044;-79
2021/08/16 01:20:24;;;;;;;50.03;46.03;;;;;;;18.54;100.00;100965.25;5071488;28;20048;-78
2021/08/16 01:22:51;;;;;;;54.53;50.83;;;;;;;18.35;100.00;100964.00;5061040;28;20048;-81
2021/08/16 01:25:18;;;;;;;51.95;48.17;;;;;;;18.27;100.00;100975.19;5066866;28;20416;-79
2021/08/16 01:27:46;;;;;;;57.30;52.70;;;;;;;18.18;100.00;100969.41;5060721;28;20060;-77
2021/08/16 01:30:16;;;;;;;63.72;59.20;;;;;;;18.04;100.00;100969.00;5059435;28;20053;-80
2021/08/16 01:32:44;;;;;;;59.25;54.10;;;;;;;18.05;100.00;100961.75;5061611;28;20049;-78
2021/08/16 01:35:11;;;;;;;60.33;56.03;;;;;;;18.04;100.00;100952.88;5069859;28;20056;-78
2021/08/16 01:37:39;;;;;;;61.80;57.20;;;;;;;17.90;100.00;100962.34;5066468;28;20094;-80
2021/08/16 01:40:12;;;;;;;63.78;59.20;;;;;;;17.80;100.00;100970.28;5061955;28;20130;-79
2021/08/16 01:42:39;;;;;;;52.63;48.58;;;;;;;17.65;100.00;100970.84;5057374;28;20095;-78
2021/08/16 01:45:09;;;;;;;67.40;62.70;;;;;;;17.64;100.00;100963.88;5062898;28;20057;-78
2021/08/16 01:47:36;;;;;;;61.60;56.78;;;;;;;17.53;100.00;100964.75;5061785;28;20053;-80
2021/08/16 01:50:03;;;;;;;59.45;54.55;;;;;;;17.24;100.00;100970.22;5068516;28;20044;-80
2021/08/16 01:52:30;;;;;;;64.20;59.30;;;;;;;17.70;100.00;100967.41;5067861;28;20386;-77
2021/08/16 01:54:57;;;;;;;68.15;63.05;;;;;;;17.71;100.00;100967.19;5057042;28;20064;-79
2021/08/16 01:57:24;;;;;;;62.40;58.10;;;;;;;17.79;100.00;100968.66;5061774;28;20041;-78
2021/08/16 01:59:51;;;;;;;62.15;57.40;;;;;;;17.48;100.00;100965.50;5065558;28;20370;-82
2021/08/16 02:02:19;;;;;;;54.15;49.88;;;;;;;17.59;100.00;100967.28;5175830;22;20056;-82
2021/08/16 02:04:47;;;;;;;63.78;59.40;;;;;;;17.68;100.00;100965.00;5056947;28;20469;-80
2021/08/16 02:07:14;;;;;;;64.32;59.90;;;;;;;17.27;100.00;100961.69;5055679;28;20070;-79
2021/08/16 02:09:41;;;;;;;63.63;59.33;;;;;;;16.99;100.00;100962.56;5061572;28;20076;-80
2021/08/16 02:12:08;;;;;;;57.38;52.92;;;;;;;17.10;100.00;100967.06;5064747;28;20128;-81
2021/08/16 02:14:35;;;;;;;53.10;49.30;;;;;;;17.49;100.00;100964.44;5067593;28;20049;-79
2021/08/16 02:17:02;;;;;;;53.40;49.60;;;;;;;17.59;100.00;100958.41;5057215;28;20107;-79
2021/08/16 02:19:30;;;;;;;71.38;66.45;;;;;;;17.23;100.00;100959.75;5065657;28;20109;-80
2021/08/16 02:21:57;;;;;;;77.53;72.15;;;;;;;17.09;100.00;100962.72;5065034;28;20053;-80
2021/08/16 02:24:24;;;;;;;53.72;49.72;;;;;;;16.76;100.00;100965.38;5063568;28;20044;-82
2021/08/16 02:26:51;;;;;;;55.30;51.50;;;;;;;16.99;100.00;100973.28;5062987;28;20055;-81
2021/08/16 02:29:18;;;;;;;47.97;44.70;;;;;;;17.08;100.00;100974.53;5062391;28;20048;-81
2021/08/16 02:31:45;;;;;;;68.95;64.68;;;;;;;17.04;100.00;100968.03;5065786;28;20057;-81
2021/08/16 02:34:11;;;;;;;60.58;56.53;;;;;;;17.04;100.00;100973.41;5065378;28;20048;-80
2021/08/16 02:36:39;;;;;;;48.38;44.80;;;;;;;17.18;100.00;100971.19;5067992;28;20480;-81
2021/08/16 02:39:06;;;;;;;51.78;47.78;;;;;;;16.63;100.00;100974.50;5063057;28;20129;-81
2021/08/16 02:41:33;;;;;;;52.80;48.75;;;;;;;16.85;100.00;100974.66;5056766;28;20121;-81
2021/08/16 02:44:00;;;;;;;55.80;51.58;;;;;;;16.89;100.00;100976.63;5064079;28;20059;-85
2021/08/16 02:46:27;;;;;;;51.83;48.03;;;;;;;17.13;100.00;100971.94;5062120;28;20056;-80
2021/08/16 02:48:53;;;;;;;52.30;48.50;;;;;;;17.15;100.00;100975.16;5064691;28;20056;-81
2021/08/16 02:51:21;;;;;;;49.67;45.80;;;;;;;16.55;100.00;100967.66;5071071;28;20377;-83
2021/08/16 02:53:49;;;;;;;50.17;46.58;;;;;;;16.56;100.00;100968.47;5060711;28;20131;-80
2021/08/16 02:56:16;;;;;;;64.35;59.65;;;;;;;16.27;100.00;100971.13;5060523;28;20056;-84
2021/08/16 02:58:43;;;;;;;56.33;52.22;;;;;;;16.50;100.00;100972.91;5061751;28;20052;-82
2021/08/16 03:01:09;;;;;;;57.42;53.22;;;;;;;16.57;100.00;100970.91;5063967;28;20055;-81
2021/08/16 03:03:36;;;;;;;55.58;51.45;;;;;;;16.60;100.00;100975.78;5060221;28;20053;-80
2021/08/16 03:06:03;;;;;;;55.35;51.13;;;;;;;16.49;100.00;100976.66;5069242;28;20049;-83
2021/08/16 03:08:30;;;;;;;51.75;47.80;;;;;;;16.16;100.00;100980.81;5061127;28;20053;-80
2021/08/16 03:10:58;;;;;;;55.88;51.45;;;;;;;16.16;100.00;100980.81;5062202;28;20048;-80
2021/08/16 03:13:25;;;;;;;49.15;44.65;;;;;;;16.25;100.00;100982.09;5061911;28;20044;-79
2021/08/16 03:15:52;;;;;;;52.00;47.90;;;;;;;16.57;100.00;100976.25;5061573;28;20059;-78
2021/08/16 03:18:18;;;;;;;51.45;47.00;;;;;;;16.15;100.00;100986.41;5062143;28;20058;-79
2021/08/16 03:20:45;;;;;;;54.63;50.55;;;;;;;16.41;100.00;100982.38;5069809;28;20059;-81
2021/08/16 03:23:12;;;;;;;56.65;52.17;;;;;;;16.32;100.00;100983.81;5057778;28;20044;-80
2021/08/16 03:25:39;;;;;;;48.63;44.92;;;;;;;16.36;100.00;100985.78;5061450;28;20045;-79
2021/08/16 03:28:07;;;;;;;47.53;43.72;;;;;;;16.50;100.00;100978.28;5065928;28;20473;-79
2021/08/16 03:30:34;;;;;;;50.13;45.83;;;;;;;16.69;100.00;100978.91;5061671;28;20040;-79
2021/08/16 03:33:00;;;;;;;50.08;46.08;;;;;;;16.88;100.00;100983.06;5063006;28;20056;-79
2021/08/16 03:35:27;;;;;;;54.40;50.20;;;;;;;16.96;100.00;100989.06;5071667;28;20441;-81
2021/08/16 03:37:54;;;;;;;49.47;45.70;;;;;;;16.83;100.00;100979.47;5066260;28;20048;-80
2021/08/16 03:40:21;;;;;;;47.70;44.17;;;;;;;16.72;100.00;100981.09;5059939;28;20052;-81
2021/08/16 03:42:47;;;;;;;48.15;44.42;;;;;;;16.37;100.00;100989.25;5070947;28;20079;-79
2021/08/16 03:45:19;;;;;;;47.70;44.00;;;;;;;16.29;100.00;100987.78;5064371;28;20087;-79
2021/08/16 03:47:46;;;;;;;44.20;40.60;;;;;;;16.42;100.00;100986.69;5060819;28;20051;-80
2021/08/16 03:50:25;;;;;;;49.05;45.25;;;;;;;16.81;100.00;100984.25;5060995;28;20056;-81
2021/08/16 03:52:52;;;;;;;44.00;40.53;;;;;;;17.04;100.00;100989.50;5066602;28;20055;-79
2021/08/16 03:55:19;;;;;;;53.88;49.85;;;;;;;17.20;100.00;100976.31;5061019;28;20490;-80
2021/08/16 03:57:46;;;;;;;45.92;42.53;;;;;;;17.14;100.00;100981.59;5059554;28;20049;-79
2021/08/16 04:00:14;;;;;;;44.63;40.88;;;;;;;16.94;100.00;100978.56;5061522;28;20048;-80
2021/08/16 04:02:42;;;;;;;46.83;43.33;;;;;;;17.12;100.00;100981.03;5062676;28;20080;-79
2021/08/16 04:05:11;;;;;;;50.83;47.13;;;;;;;17.35;100.00;100976.56;5069435;28;20044;-80
2021/08/16 04:07:38;;;;;;;43.75;40.65;;;;;;;17.18;100.00;100981.94;5062408;28;20127;-80
2021/08/16 04:10:05;;;;;;;44.17;40.88;;;;;;;17.42;100.00;100979.91;5059429;28;20060;-82
2021/08/16 04:12:32;;;;;;;41.92;38.72;;;;;;;17.59;100.00;100975.34;5063924;28;20051;-81
2021/08/16 04:14:59;;;;;;;40.53;37.53;;;;;;;17.79;100.00;100982.91;5060289;28;20056;-81
2021/08/16 04:17:25;;;;;;;46.40;43.20;;;;;;;17.91;100.00;100981.97;5062103;28;20061;-79
2021/08/16 04:19:54;;;;;;;49.83;46.13;;;;;;;17.92;100.00;100989.00;5066315;28;20041;-82
2021/08/16 04:22:20;;;;;;;46.38;42.80;;;;;;;17.92;100.00;100989.81;5061680;28;20060;-81
2021/08/16 04:24:47;;;;;;;43.35;40.10;;;;;;;18.11;100.00;100989.50;5067344;28;20484;-78
2021/08/16 04:27:14;;;;;;;43.05;39.70;;;;;;;18.37;100.00;100986.06;5063613;28;20044;-80
2021/08/16 04:29:41;;;;;;;44.13;40.40;;;;;;;18.35;100.00;100984.69;5067346;28;20063;-78
2021/08/16 04:32:08;;;;;;;47.60;44.25;;;;;;;18.51;100.00;100989.16;5066145;28;20499;-78
2021/08/16 04:34:35;;;;;;;43.95;40.88;;;;;;;18.64;100.00;100993.34;5069438;28;20051;-78
2021/08/16 04:37:03;;;;;;;45.92;43.00;;;;;;;18.65;100.00;100989.59;5068406;28;20066;-78
2021/08/16 04:39:30;;;;;;;40.63;37.80;;;;;;;18.84;100.00;100992.78;5064054;28;20053;-79
2021/08/16 04:41:57;;;;;;;43.03;40.10;;;;;;;19.08;100.00;100988.69;5065572;28;20059;-79
2021/08/16 04:44:24;;;;;;;41.53;39.03;;;;;;;19.01;100.00;100993.50;5066798;28;20049;-81
2021/08/16 04:46:51;;;;;;;39.58;36.95;;;;;;;19.10;100.00;100996.53;5065059;28;20468;-78
2021/08/16 04:49:17;;;;;;;43.47;40.67;;;;;;;19.30;100.00;100995.88;5062005;28;20480;-79
2021/08/16 04:51:45;;;;;;;40.28;37.45;;;;;;;19.55;100.00;100995.28;5064698;28;20056;-80
2021/08/16 04:54:14;;;;;;;39.88;37.08;;;;;;;19.63;100.00;100995.56;5062804;28;20142;-78
2021/08/16 04:56:40;;;;;;;43.22;40.72;;;;;;;19.65;100.00;100995.38;5061583;28;20047;-78
2021/08/16 04:59:07;;;;;;;41.53;38.97;;;;;;;19.72;100.00;100987.84;5053960;28;20460;-78
2021/08/16 05:01:34;;;;;;;36.67;34.28;;;;;;;19.79;100.00;100988.47;5058146;28;20401;-80
2021/08/16 05:04:01;;;;;;;40.33;37.67;;;;;;;19.71;100.00;100999.72;5062539;28;20130;-79
2021/08/16 05:06:32;;;;;;;43.85;41.13;;;;;;;19.90;100.00;100992.81;5066965;28;20068;-79
2021/08/16 05:09:00;;;;;;;38.57;36.07;;;;;;;20.02;100.00;100994.50;5061924;28;20060;-79
2021/08/16 05:11:29;;;;;;;36.80;34.45;;;;;;;20.31;100.00;100998.41;5058416;28;20338;-80
2021/08/16 05:13:55;;;;;;;37.60;35.00;;;;;;;20.46;100.00;100991.47;5058758;28;20478;-81
2021/08/16 05:16:25;;;;;;;36.30;34.05;;;;;;;20.51;100.00;101002.25;5059714;28;20055;-79
2021/08/16 05:18:52;;;;;;;33.83;31.73;;;;;;;20.56;100.00;101002.28;5062541;28;20063;-81
2021/08/16 05:21:19;;;;;;;38.00;35.35;;;;;;;20.65;100.00;101000.69;5067041;28;20481;-79
2021/08/16 05:23:46;;;;;;;36.10;32.92;;;;;;;20.81;100.00;101007.75;5061177;28;20041;-83
2021/08/16 05:26:13;;;;;;;33.25;30.63;;;;;;;20.88;100.00;101001.28;5058081;28;20044;-84
2021/08/16 05:28:41;;;;;;;33.75;31.45;;;;;;;20.98;100.00;100995.91;5060823;28;20061;-79
2021/08/16 05:31:08;;;;;;;33.42;31.02;;;;;;;21.25;100.00;100998.34;5064161;28;20048;-82
2021/08/16 05:33:35;;;;;;;38.05;35.47;;;;;;;21.42;100.00;100998.09;5060525;28;20047;-79
2021/08/16 05:36:01;;;;;;;33.85;31.67;;;;;;;21.68;100.00;100996.16;5068387;28;20466;-82
2021/08/16 05:38:28;;;;;;;36.30;34.20;;;;;;;21.92;100.00;100990.97;5058547;28;20477;-80
2021/08/16 05:40:55;;;;;;;37.75;35.13;;;;;;;22.09;100.00;100998.78;5059702;28;20484;-83
2021/08/16 05:43:22;;;;;;;34.92;32.72;;;;;;;22.15;100.00;101001.19;5062770;28;20075;-81
2021/08/16 05:45:50;;;;;;;34.17;32.10;;;;;;;22.23;100.00;100996.31;5068382;28;20040;-79
2021/08/16 05:48:17;;;;;;;36.75;34.63;;;;;;;22.29;100.00;100996.00;5063121;28;20056;-80
2021/08/16 05:50:44;;;;;;;36.17;34.00;;;;;;;22.43;100.00;100993.50;5055295;28;20049;-80
2021/08/16 05:53:11;;;;;;;38.88;36.78;;;;;;;22.65;100.00;100998.53;5065084;28;20049;-81
2021/08/16 05:55:38;;;;;;;37.67;35.55;;;;;;;22.76;100.00;100996.59;5064349;28;20091;-83
2021/08/16 05:58:05;;;;;;;37.47;35.47;;;;;;;22.84;100.00;101001.38;5068637;28;20048;-79
2021/08/16 06:00:32;;;;;;;34.25;32.25;;;;;;;23.06;100.00;100988.28;5062147;28;20056;-83
2021/08/16 06:03:00;;;;;;;35.90;33.60;;;;;;;23.25;100.00;100988.38;5062166;28;20064;-79
2021/08/16 06:05:27;;;;;;;43.00;40.50;;;;;;;23.27;100.00;100978.06;5073121;28;20053;-81
2021/08/16 06:07:54;;;;;;;39.95;37.75;;;;;;;23.99;100.00;100997.16;5055277;28;20061;-79
2021/08/16 06:10:21;;;;;;;40.17;37.92;;;;;;;24.43;100.00;100989.84;5063864;28;20106;-80
2021/08/16 06:12:48;;;;;;;35.63;33.22;;;;;;;24.01;100.00;100999.56;5064799;28;20057;-81
2021/08/16 06:15:15;;;;;;;36.80;34.22;;;;;;;23.82;100.00;100996.81;5068143;28;20060;-80
2021/08/16 06:17:41;;;;;;;39.08;36.67;;;;;;;23.99;100.00;100990.91;5071212;28;20076;-80
2021/08/16 06:20:11;;;;;;;42.25;39.85;;;;;;;24.34;100.00;100997.00;5074618;28;20125;-80
2021/08/16 06:22:38;;;;;;;36.65;34.40;;;;;;;24.34;100.00;100984.25;5064109;28;20092;-81
2021/08/16 06:25:09;;;;;;;44.33;41.28;;;;;;;25.81;100.00;100984.91;5064901;28;20124;-86
2021/08/16 06:27:36;;;;;;;40.72;38.20;;;;;;;25.72;100.00;100984.81;5068624;28;20063;-81
2021/08/16 06:30:03;;;;;;;37.10;34.80;;;;;;;25.18;100.00;100989.03;5069075;28;20045;-80
2021/08/16 06:32:32;;;;;;;37.42;34.67;;;;;;;25.23;100.00;100983.50;5070939;28;20048;-81
2021/08/16 06:35:00;;;;;;;35.42;33.13;;;;;;;25.48;100.00;100990.41;5070471;28;20048;-80
2021/08/16 06:37:28;;;;;;;32.20;30.33;;;;;;;25.52;100.00;100985.97;5058732;28;20405;-80
2021/08/16 06:39:55;;;;;;;30.60;28.58;;;;;;;26.03;100.00;101000.56;5064688;28;20114;-79
2021/08/16 06:42:22;;;;;;;33.33;31.20;;;;;;;25.75;100.00;101003.25;5067296;28;20056;-80
2021/08/16 06:44:49;;;;;;;31.10;29.13;;;;;;;25.77;100.00;101001.00;5059228;28;20044;-77
2021/08/16 06:47:16;;;;;;;37.97;35.75;;;;;;;26.17;100.00;101001.38;5066354;28;20052;-78
2021/08/16 06:49:44;;;;;;;36.13;33.67;;;;;;;26.15;100.00;100997.34;5066682;28;20049;-77
2021/08/16 06:52:11;;;;;;;39.25;37.03;;;;;;;26.44;100.00;100997.78;5063832;28;20052;-80
2021/08/16 06:54:39;;;;;;;40.83;38.53;;;;;;;26.67;100.00;100997.88;5062236;28;20049;-77
2021/08/16 06:57:06;;;;;;;31.48;29.38;;;;;;;26.73;100.00;100996.63;5061546;28;20055;-78
2021/08/16 06:59:34;;;;;;;31.98;29.98;;;;;;;26.93;100.00;100996.16;5063601;28;20071;-77
2021/08/16 07:02:01;;;;;;;32.08;29.98;;;;;;;27.10;100.00;100991.94;5066077;28;20056;-79
2021/08/16 07:04:27;;;;;;;28.95;26.95;;;;;;;27.14;100.00;100995.63;5064095;28;20127;-77
2021/08/16 07:06:54;;;;;;;33.05;31.13;;;;;;;27.35;100.00;100998.69;5065982;28;20588;-77
2021/08/16 07:09:21;;;;;;;34.05;32.10;;;;;;;27.68;100.00;100992.91;5065070;28;20052;-79
2021/08/16 07:11:49;;;;;;;33.60;31.50;;;;;;;27.66;95.01;100998.69;5064474;28;20052;-79
2021/08/16 07:14:16;;;;;;;30.58;28.45;;;;;;;27.73;95.69;101000.97;5062831;28;20045;-80
2021/08/16 07:16:43;;;;;;;27.90;26.17;;;;;;;27.77;91.82;100999.22;5059865;28;20048;-78
2021/08/16 07:19:09;;;;;;;31.98;30.17;;;;;;;27.90;93.65;100998.34;5065464;28;20041;-78
2021/08/16 07:21:36;;;;;;;31.60;29.50;;;;;;;28.29;96.80;100999.38;5067222;28;20082;-77
2021/08/16 07:24:03;;;;;;;34.58;32.58;;;;;;;28.52;91.07;100994.63;5062255;28;20048;-77
2021/08/16 07:26:30;;;;;;;34.28;32.08;;;;;;;29.02;91.33;100993.34;5059920;28;20405;-79
2021/08/16 07:28:58;;;;;;;31.60;29.70;;;;;;;29.02;80.59;100990.63;5059373;28;20473;-78
2021/08/16 07:31:25;;;;;;;31.15;29.25;;;;;;;29.21;74.37;100994.63;5062445;28;20045;-81
2021/08/16 07:33:52;;;;;;;30.05;28.15;;;;;;;29.13;68.40;100995.44;5069605;28;20044;-78
2021/08/16 07:36:19;;;;;;;34.63;32.38;;;;;;;29.29;71.78;101005.84;5068622;28;20138;-79
2021/08/16 07:38:45;;;;;;;32.90;30.60;;;;;;;29.49;72.73;100990.69;5061871;28;20044;-79
2021/08/16 07:41:12;;;;;;;31.23;29.20;;;;;;;29.57;61.98;100996.13;5064331;28;20053;-79
2021/08/16 07:43:40;;;;;;;31.13;29.10;;;;;;;29.62;65.46;100992.44;5061637;28;20119;-79
2021/08/16 07:46:08;;;;;;;32.00;30.00;;;;;;;29.83;63.08;100992.50;5061416;28;20125;-78
2021/08/16 07:48:35;;;;;;;32.97;30.98;;;;;;;30.05;52.36;100994.97;5063677;28;20456;-80
2021/08/16 07:51:02;;;;;;;36.00;33.80;;;;;;;30.09;57.17;100995.13;5065677;28;20049;-78
2021/08/16 07:53:28;;;;;;;37.45;35.33;;;;;;;30.24;53.64;100997.31;5056724;28;20052;-80
2021/08/16 07:55:55;;;;;;;32.83;30.80;;;;;;;30.44;49.46;100994.91;5060972;28;20056;-81
2021/08/16 07:58:22;;;;;;;33.17;31.17;;;;;;;30.11;54.74;100992.84;5062632;28;20555;-77
2021/08/16 08:00:49;;;;;;;36.58;34.50;;;;;;;30.55;49.46;100999.66;5072313;28;20064;-78
2021/08/16 08:03:17;;;;;;;36.72;34.47;;;;;;;30.60;42.40;100998.66;5065979;28;20048;-80
2021/08/16 08:05:44;;;;;;;33.90;31.85;;;;;;;30.57;48.67;101000.13;5069349;28;20060;-79
2021/08/16 08:08:10;;;;;;;34.50;32.42;;;;;;;30.13;53.19;100993.31;5071162;28;20157;-78
2021/08/16 08:10:37;;;;;;;36.15;33.95;;;;;;;30.77;49.63;100997.69;5061176;28;20049;-79
2021/08/16 08:13:04;;;;;;;31.85;29.52;;;;;;;30.88;45.17;100998.13;5058598;28;20424;-77
2021/08/16 08:15:31;;;;;;;33.08;31.15;;;;;;;30.90;44.64;100995.88;5061444;28;20374;-79
2021/08/16 08:17:57;;;;;;;30.45;28.60;;;;;;;30.94;44.65;101000.31;5060901;28;20052;-77
2021/08/16 08:20:25;;;;;;;31.13;29.23;;;;;;;31.18;41.00;100987.84;5068024;28;20057;-78
2021/08/16 08:22:52;;;;;;;33.53;31.42;;;;;;;31.03;45.32;100990.06;5065937;28;20061;-79
2021/08/16 08:25:19;;;;;;;35.38;32.30;;;;;;;31.32;45.07;100990.25;5065531;28;20045;-77
2021/08/16 08:27:46;;;;;;;35.13;33.00;;;;;;;31.24;41.03;100989.22;5067964;28;20048;-80
2021/08/16 08:30:14;;;;;;;35.28;33.28;;;;;;;31.37;40.25;100990.88;5064759;28;20056;-80
2021/08/16 08:32:47;;;;;;;31.20;29.20;;;;;;;31.77;43.77;100984.72;5067427;28;20049;-78
2021/08/16 08:35:14;;;;;;;33.88;31.77;;;;;;;31.57;40.67;100982.91;5075224;28;20476;-78
2021/08/16 08:37:42;;;;;;;35.28;33.28;;;;;;;31.76;44.13;100977.63;5071217;28;20056;-78
2021/08/16 08:40:09;;;;;;;33.70;31.70;;;;;;;31.83;40.81;100972.41;5053370;28;20048;-79
2021/08/16 08:42:37;;;;;;;32.22;30.42;;;;;;;30.60;50.59;100979.47;5064039;28;20053;-79
2021/08/16 08:45:05;;;;;;;36.83;34.65;;;;;;;29.28;69.95;100979.66;5068845;28;21039;-78
2021/08/16 08:47:33;;;;;;;38.30;36.00;;;;;;;30.74;46.56;100971.78;5067569;28;20420;-78
2021/08/16 08:50:00;;;;;;;37.42;35.22;;;;;;;31.16;47.15;100965.41;5072045;28;20135;-79
2021/08/16 08:52:26;;;;;;;30.92;29.15;;;;;;;32.07;42.43;100966.06;5061038;28;20060;-78
2021/08/16 08:54:56;;;;;;;31.85;29.85;;;;;;;31.48;44.37;100967.34;5068563;28;20063;-78
2021/08/16 08:57:23;;;;;;;34.63;32.35;;;;;;;31.21;48.73;100973.44;5067076;28;20044;-78
2021/08/16 08:59:50;;;;;;;35.85;33.83;;;;;;;31.97;40.58;100965.75;5064424;28;20131;-78
2021/08/16 09:02:17;;;;;;;43.75;41.13;;;;;;;32.23;39.91;100960.69;5059072;28;20067;-79
2021/08/16 09:04:51;;;;;;;33.13;30.83;;;;;;;31.79;38.74;100951.44;5080801;28;20044;-78
2021/08/16 09:07:19;;;;;;;32.67;30.25;;;;;;;32.09;45.98;100954.75;5071501;28;20071;-79
2021/08/16 09:09:56;;;;;;;33.90;31.70;;;;;;;31.45;46.13;100959.00;5064019;28;20045;-78
2021/08/16 09:12:31;;;;;;;31.23;29.17;;;;;;;30.99;49.95;100956.25;5063419;28;20402;-79
2021/08/16 09:14:59;;;;;;;32.80;30.80;;;;;;;31.80;48.05;100948.38;5070343;28;20051;-81
2021/08/16 09:17:33;;;;;;;37.28;35.17;;;;;;;32.54;39.20;100942.75;5072455;28;20046;-82
2021/08/16 09:20:00;;;;;;;36.13;33.92;;;;;;;32.38;44.85;100943.47;5071440;28;20056;-79
2021/08/16 09:22:32;;;;;;;35.75;33.55;;;;;;;32.77;41.96;100946.56;5065435;28;20064;-80
2021/08/16 09:25:05;;;;;;;32.78;30.63;;;;;;;31.83;46.06;100944.94;5069998;28;20135;-81
2021/08/16 09:27:33;;;;;;;35.55;33.15;;;;;;;32.86;40.80;100935.38;5074804;28;20063;-78
2021/08/16 09:30:01;;;;;;;36.45;33.80;;;;;;;33.49;39.81;100932.69;5071040;28;20057;-78
2021/08/16 09:32:35;;;;;;;33.58;31.38;;;;;;;32.56;40.27;100929.47;5067793;28;20049;-78
2021/08/16 09:35:07;;;;;;;33.47;30.90;;;;;;;33.41;37.82;100930.94;5086727;28;20048;-78
2021/08/16 09:37:36;;;;;;;32.13;30.00;;;;;;;33.05;36.43;100926.50;5069369;28;20113;-79
2021/08/16 09:40:08;;;;;;;36.33;33.92;;;;;;;33.25;37.01;100922.66;5067470;28;20045;-81
2021/08/16 09:42:43;;;;;;;35.75;33.40;;;;;;;33.20;38.32;100917.44;5067397;28;20053;-78
2021/08/16 09:45:11;;;;;;;37.92;35.53;;;;;;;33.49;34.89;100923.63;5070486;28;20044;-78
2021/08/16 09:47:43;;;;;;;34.70;32.33;;;;;;;33.82;36.38;100914.19;5072654;28;20476;-79
2021/08/16 09:50:12;;;;;;;34.85;32.55;;;;;;;32.34;43.41;100911.53;5062788;28;20075;-80
2021/08/16 09:52:40;;;;;;;33.25;31.05;;;;;;;31.78;45.15;100909.47;5074112;28;20141;-77
2021/08/16 09:55:09;;;;;;;33.08;30.92;;;;;;;34.02;40.01;100904.81;5071486;28;20040;-77
2021/08/16 09:57:36;;;;;;;35.63;33.53;;;;;;;33.80;39.85;100909.06;5068870;28;20464;-79
2021/08/16 10:00:03;;;;;;;41.13;38.72;;;;;;;33.87;35.41;100906.47;5066772;28;20420;-79
2021/08/16 10:02:31;;;;;;;34.95;32.85;;;;;;;34.28;35.99;100906.94;5061131;28;20064;-78
2021/08/16 10:04:58;;;;;;;34.88;32.75;;;;;;;34.32;36.42;100907.03;5071169;28;20467;-79
2021/08/16 10:07:28;;;;;;;38.58;36.03;;;;;;;34.57;33.82;100900.06;5073740;28;20467;-79
2021/08/16 10:09:59;;;;;;;34.08;32.08;;;;;;;34.38;33.55;100892.59;5074194;28;20063;-78
2021/08/16 10:12:28;;;;;;;29.47;27.53;;;;;;;31.82;43.43;100895.84;5063628;28;20037;-79
2021/08/16 10:14:56;;;;;;;29.58;27.38;;;;;;;33.32;42.27;100891.00;5063394;28;20060;-78
2021/08/16 10:17:27;;;;;;;28.23;26.15;;;;;;;34.27;38.97;100891.56;5064518;28;20131;-77
2021/08/16 10:19:56;;;;;;;28.70;26.60;;;;;;;34.42;37.96;100889.91;5063524;28;20064;-78
2021/08/16 10:22:23;;;;;;;28.83;26.48;;;;;;;34.58;35.60;100878.81;5065619;28;20110;-80
2021/08/16 10:24:50;;;;;;;27.10;25.30;;;;;;;34.79;34.79;100881.16;5070456;28;20055;-81
2021/08/16 10:27:17;;;;;;;27.30;25.40;;;;;;;33.72;38.00;100877.81;5064383;28;20052;-80
2021/08/16 10:29:45;;;;;;;27.30;25.33;;;;;;;34.61;35.29;100883.59;5068869;28;20056;-78
2021/08/16 10:32:19;;;;;;;28.70;26.50;;;;;;;34.18;36.27;100879.97;5066110;28;20089;-81
2021/08/16 10:34:46;;;;;;;27.77;25.98;;;;;;;34.73;36.08;100882.63;5073878;28;20052;-79
2021/08/16 10:37:15;;;;;;;29.52;27.42;;;;;;;32.72;42.81;100874.53;5069098;28;20451;-79
2021/08/16 10:39:43;;;;;;;27.85;25.52;;;;;;;34.88;39.92;100868.72;5068815;28;20404;-79
2021/08/16 10:42:12;;;;;;;26.00;24.20;;;;;;;34.64;33.47;100871.84;5065672;28;20551;-79
2021/08/16 10:44:46;;;;;;;29.38;27.17;;;;;;;35.67;32.47;100864.47;5069552;28;20045;-78
2021/08/16 10:47:25;;;;;;;29.58;27.65;;;;;;;35.90;32.93;100860.84;5064456;28;20091;-77
2021/08/16 10:50:03;;;;;;;27.30;25.40;;;;;;;35.33;32.79;100861.59;5066266;28;20045;-80
2021/08/16 10:52:31;;;;;;;28.90;26.70;;;;;;;35.73;31.34;100856.66;5066879;28;20044;-79
2021/08/16 10:55:11;;;;;;;28.73;26.67;;;;;;;36.05;31.20;100857.13;5067427;28;20044;-78
2021/08/16 10:57:39;;;;;;;28.38;26.17;;;;;;;35.72;32.52;100850.34;5059758;28;20058;-79
2021/08/16 11:00:09;;;;;;;30.02;27.55;;;;;;;34.65;35.66;100843.09;5066062;28;20460;-78
2021/08/16 11:02:39;;;;;;;29.95;27.85;;;;;;;34.71;33.07;100835.31;5069804;28;20490;-78
2021/08/16 11:05:06;;;;;;;27.92;25.73;;;;;;;35.28;34.85;100842.59;5072638;28;20110;-79
2021/08/16 11:07:33;;;;;;;26.75;24.75;;;;;;;35.68;31.31;100835.69;5063604;28;20075;-80